createdAt,value
2017-12-12T00:01:09.830Z,8.20
2017-12-12T00:03:41.185Z,9.93
2017-12-12T00:06:12.094Z,6.60
2017-12-12T00:08:43.163Z,7.70
2017-12-12T00:11:13.938Z,7.40
2017-12-12T00:13:44.907Z,6.80
2017-12-12T00:16:15.786Z,8.00
2017-12-12T00:18:47.346Z,8.00
2017-12-12T00:21:19.079Z,8.90
2017-12-12T00:23:50.003Z,6.50
2017-12-12T00:26:20.677Z,6.90
2017-12-12T00:28:51.727Z,7.30
2017-12-12T00:31:22.166Z,8.63
2017-12-12T00:33:53.127Z,7.67
2017-12-12T00:36:24.430Z,9.03
2017-12-12T00:38:55.750Z,7.13
2017-12-12T00:41:26.455Z,7.53
2017-12-12T00:43:57.720Z,7.57
2017-12-12T00:46:28.496Z,7.93
2017-12-12T00:49:00.290Z,7.83
2017-12-12T00:51:31.131Z,8.27
2017-12-12T00:54:01.953Z,8.27
2017-12-12T00:56:33.301Z,7.20
2017-12-12T00:59:04.706Z,7.40
2017-12-12T01:01:35.364Z,7.77
2017-12-12T01:04:06.128Z,7.70
2017-12-12T01:06:37.146Z,7.63
2017-12-12T01:09:08.981Z,7.60
2017-12-12T01:11:40.044Z,8.20
2017-12-12T01:14:10.449Z,8.27
2017-12-12T01:16:41.802Z,7.20
2017-12-12T01:19:12.389Z,6.77
2017-12-12T01:21:44.029Z,6.90
2017-12-12T01:25:43.712Z,7.70
2017-12-12T01:28:15.385Z,7.00
2017-12-12T01:30:47.258Z,6.87
2017-12-12T01:33:17.791Z,7.00
2017-12-12T01:35:48.739Z,7.27
2017-12-12T01:38:19.462Z,7.43
2017-12-12T01:40:50.784Z,7.63
2017-12-12T01:43:21.626Z,6.17
2017-12-12T01:45:52.905Z,6.90
2017-12-12T01:48:24.421Z,8.47
2017-12-12T01:50:55.886Z,7.20
2017-12-12T01:53:26.635Z,6.23
2017-12-12T01:55:57.754Z,6.83
2017-12-12T01:58:29.024Z,6.53
2017-12-12T02:01:00.441Z,5.47
2017-12-12T02:03:31.656Z,6.53
2017-12-12T02:06:02.716Z,5.87
2017-12-12T02:08:34.141Z,5.70
2017-12-12T02:11:05.657Z,6.43
2017-12-12T02:13:37.312Z,6.67
2017-12-12T02:16:09.075Z,5.27
2017-12-12T02:18:39.929Z,6.93
2017-12-12T02:21:12.262Z,6.20
2017-12-12T02:23:43.806Z,6.40
2017-12-12T02:26:14.541Z,5.20
2017-12-12T02:28:46.959Z,6.50
2017-12-12T02:31:18.169Z,5.53
2017-12-12T02:33:49.170Z,6.07
2017-12-12T02:36:19.877Z,6.87
2017-12-12T02:38:51.335Z,6.33
2017-12-12T02:41:22.503Z,6.37
2017-12-12T02:43:53.437Z,5.40
2017-12-12T02:46:24.628Z,5.20
2017-12-12T02:48:55.609Z,5.40
2017-12-12T02:51:26.133Z,6.00
2017-12-12T02:53:57.626Z,5.67
2017-12-12T02:56:28.275Z,5.60
2017-12-12T02:58:59.852Z,5.57
2017-12-12T03:01:30.637Z,6.33
2017-12-12T03:04:01.539Z,5.07
2017-12-12T03:13:19.989Z,6.63
2017-12-12T03:15:50.645Z,6.13
2017-12-12T03:18:21.472Z,5.57
2017-12-12T03:20:52.301Z,7.47
2017-12-12T03:23:23.207Z,5.73
2017-12-12T03:25:53.569Z,5.13
2017-12-12T03:29:27.466Z,5.67
2017-12-12T03:31:58.670Z,5.60
2017-12-12T03:34:28.952Z,5.90
2017-12-12T03:36:59.481Z,5.90
2017-12-12T03:39:30.766Z,6.37
2017-12-12T03:42:02.472Z,7.00
2017-12-12T03:44:33.421Z,6.63
2017-12-12T03:47:04.074Z,6.63
2017-12-12T03:49:34.927Z,7.17
2017-12-12T03:52:06.776Z,6.27
2017-12-12T03:54:37.501Z,6.03
2017-12-12T03:57:08.704Z,5.67
2017-12-12T03:59:39.557Z,6.80
2017-12-12T04:02:10.218Z,5.60
2017-12-12T04:04:41.888Z,4.77
2017-12-12T04:07:12.258Z,6.10
2017-12-12T04:09:43.835Z,5.07
2017-12-12T04:12:14.724Z,5.77
2017-12-12T04:14:45.193Z,5.67
2017-12-12T04:17:17.354Z,5.70
2017-12-12T04:19:49.012Z,6.20
2017-12-12T04:22:19.518Z,5.60
2017-12-12T04:24:50.561Z,6.20
2017-12-12T04:27:21.228Z,7.37
2017-12-12T04:29:52.350Z,6.13
2017-12-12T04:32:22.922Z,7.40
2017-12-12T04:34:54.099Z,7.27
2017-12-12T04:37:24.967Z,6.90
2017-12-12T04:39:55.380Z,6.60
2017-12-12T04:42:25.897Z,7.00
2017-12-12T04:44:57.062Z,8.30
2017-12-12T04:47:27.492Z,8.00
2017-12-12T04:49:58.197Z,7.60
2017-12-12T04:52:29.147Z,6.20
2017-12-12T04:54:59.793Z,6.77
2017-12-12T04:57:30.302Z,7.83
2017-12-12T05:00:01.049Z,7.57
2017-12-12T05:02:31.757Z,8.20
2017-12-12T05:05:02.756Z,7.37
2017-12-12T05:07:35.030Z,6.73
2017-12-12T05:10:05.623Z,6.50
2017-12-12T05:12:37.834Z,7.37
2017-12-12T05:15:09.235Z,7.17
2017-12-12T05:17:39.532Z,6.57
2017-12-12T05:20:10.065Z,6.50
2017-12-12T05:22:40.961Z,5.63
2017-12-12T05:25:11.976Z,5.53
2017-12-12T05:27:42.755Z,6.43
2017-12-12T05:30:13.310Z,7.00
2017-12-12T05:32:44.717Z,6.77
2017-12-12T05:35:15.045Z,6.47
2017-12-12T05:37:45.707Z,6.77
2017-12-12T05:40:16.447Z,6.80
2017-12-12T05:42:47.404Z,6.63
2017-12-12T05:45:18.365Z,5.87
2017-12-12T05:47:49.745Z,6.70
2017-12-12T05:50:20.072Z,6.87
2017-12-12T05:52:50.778Z,6.30
2017-12-12T05:55:21.463Z,6.33
2017-12-12T05:57:52.011Z,8.60
2017-12-12T06:00:22.429Z,6.07
2017-12-12T06:02:54.439Z,7.07
2017-12-12T06:05:25.706Z,6.70
2017-12-12T06:07:56.656Z,6.97
2017-12-12T06:10:27.506Z,7.73
2017-12-12T06:12:58.224Z,7.67
2017-12-12T06:15:28.944Z,6.23
2017-12-12T06:17:59.941Z,6.30
2017-12-12T06:20:33.242Z,7.90
2017-12-12T06:23:04.921Z,6.13
2017-12-12T06:25:49.008Z,5.40
2017-12-12T06:28:19.855Z,5.27
2017-12-12T06:30:51.214Z,5.60
2017-12-12T06:33:23.231Z,5.57
2017-12-12T06:35:54.112Z,5.30
2017-12-12T06:38:25.613Z,4.70
2017-12-12T06:40:56.255Z,6.23
2017-12-12T06:43:27.142Z,5.77
2017-12-12T06:45:57.743Z,5.87
2017-12-12T06:48:28.149Z,5.03
2017-12-12T06:50:58.620Z,5.70
2017-12-12T06:53:29.023Z,5.50
2017-12-12T06:55:59.630Z,5.40
2017-12-12T06:58:29.881Z,4.73
2017-12-12T07:01:01.073Z,5.77
2017-12-12T07:03:31.627Z,6.47
2017-12-12T07:06:02.048Z,5.27
2017-12-12T07:08:32.669Z,5.03
2017-12-12T07:11:04.533Z,4.83
2017-12-12T07:13:35.127Z,4.57
2017-12-12T07:16:06.365Z,5.80
2017-12-12T07:18:36.867Z,6.90
2017-12-12T07:21:07.514Z,4.87
2017-12-12T07:23:38.336Z,4.97
2017-12-12T07:26:08.584Z,5.63
2017-12-12T07:28:38.972Z,5.30
2017-12-12T07:31:09.450Z,5.60
2017-12-12T07:33:41.134Z,4.73
2017-12-12T07:36:11.446Z,5.80
2017-12-12T07:38:41.832Z,5.73
2017-12-12T07:41:14.185Z,6.60
2017-12-12T07:43:45.742Z,5.90
2017-12-12T07:46:16.421Z,5.67
2017-12-12T07:48:46.804Z,5.40
2017-12-12T07:51:17.386Z,5.10
2017-12-12T07:53:47.884Z,4.83
2017-12-12T07:56:18.338Z,6.00
2017-12-12T07:58:49.069Z,5.97
2017-12-12T08:01:19.646Z,6.10
2017-12-12T08:03:50.297Z,5.30
2017-12-12T08:06:21.614Z,7.63
2017-12-12T08:08:52.302Z,5.57
2017-12-12T08:11:22.782Z,6.00
2017-12-12T08:13:53.418Z,5.00
2017-12-12T08:16:23.641Z,6.13
2017-12-12T08:18:54.097Z,5.63
2017-12-12T08:21:25.341Z,5.60
2017-12-12T08:23:56.290Z,6.57
2017-12-12T08:26:26.680Z,6.73
2017-12-12T08:28:57.619Z,4.90
2017-12-12T08:31:27.815Z,6.63
2017-12-12T08:33:58.113Z,5.30
2017-12-12T08:36:35.455Z,5.83
2017-12-12T08:39:11.392Z,6.83
2017-12-12T08:41:42.586Z,5.70
2017-12-12T08:44:13.117Z,6.57
2017-12-12T08:46:43.487Z,5.60
2017-12-12T08:49:14.139Z,6.60
2017-12-12T08:51:44.486Z,6.20
2017-12-12T08:54:15.751Z,5.70
2017-12-12T08:56:46.008Z,6.13
2017-12-12T08:59:16.640Z,7.30
2017-12-12T09:01:47.332Z,7.07
2017-12-12T09:04:17.977Z,5.83
2017-12-12T09:06:49.285Z,5.20
2017-12-12T09:09:19.964Z,4.53
2017-12-12T09:11:50.368Z,5.30
2017-12-12T09:14:20.796Z,5.53
2017-12-12T09:16:51.153Z,5.80
2017-12-12T09:19:21.916Z,5.10
2017-12-12T09:21:52.487Z,4.93
2017-12-12T09:24:22.915Z,5.57
2017-12-12T09:26:53.493Z,5.47
2017-12-12T09:29:23.897Z,4.77
2017-12-12T09:31:54.689Z,5.27
2017-12-12T09:34:25.222Z,4.70
2017-12-12T09:36:55.718Z,4.90
2017-12-12T09:39:26.209Z,5.50
2017-12-12T09:41:56.830Z,5.23
2017-12-12T09:44:27.171Z,5.10
2017-12-12T09:46:57.910Z,5.10
2017-12-12T09:49:28.161Z,4.53
2017-12-12T09:51:59.450Z,5.30
2017-12-12T09:54:30.198Z,4.77
2017-12-12T09:57:00.598Z,5.50
2017-12-12T09:59:30.941Z,5.80
2017-12-12T10:02:01.720Z,4.30
2017-12-12T10:04:32.860Z,5.10
2017-12-12T10:07:03.408Z,5.23
2017-12-12T10:09:34.506Z,5.63
2017-12-12T10:12:04.976Z,5.57
2017-12-12T10:14:36.227Z,4.80
2017-12-12T10:17:06.665Z,5.37
2017-12-12T10:19:37.189Z,5.07
2017-12-12T10:22:09.393Z,4.83
2017-12-12T10:24:40.528Z,5.33
2017-12-12T10:27:10.916Z,5.50
2017-12-12T10:29:41.705Z,5.23
2017-12-12T10:32:12.247Z,5.10
2017-12-12T10:34:42.433Z,4.90
2017-12-12T10:37:12.856Z,5.50
2017-12-12T10:39:43.309Z,4.40
2017-12-12T10:42:14.011Z,5.17
2017-12-12T10:44:45.294Z,4.63
2017-12-12T10:47:16.238Z,4.67
2017-12-12T10:49:46.846Z,4.37
2017-12-12T10:52:18.051Z,4.27
2017-12-12T10:54:48.495Z,4.63
2017-12-12T10:57:19.395Z,3.50
2017-12-12T10:59:49.941Z,3.00
2017-12-12T11:02:20.438Z,4.13
2017-12-12T11:04:59.067Z,3.77
2017-12-12T11:07:37.780Z,2.83
2017-12-12T11:10:08.956Z,3.40
2017-12-12T11:12:39.662Z,3.00
2017-12-12T11:15:10.022Z,3.33
2017-12-12T11:17:40.387Z,3.27
2017-12-12T11:20:11.021Z,2.40
2017-12-12T11:22:42.801Z,3.10
2017-12-12T11:25:14.170Z,2.77
2017-12-12T11:27:44.692Z,2.70
2017-12-12T11:31:17.793Z,3.27
2017-12-12T11:33:48.992Z,3.43
2017-12-12T11:36:19.572Z,2.80
2017-12-12T11:38:50.311Z,2.80
2017-12-12T11:41:20.765Z,2.53
2017-12-12T11:43:51.063Z,2.50
2017-12-12T11:46:21.714Z,3.00
2017-12-12T11:48:52.103Z,3.00
2017-12-12T11:51:23.283Z,2.90
2017-12-12T11:53:54.698Z,3.17
2017-12-12T11:56:25.337Z,3.27
2017-12-12T11:58:55.756Z,3.27
2017-12-12T12:01:26.654Z,2.50
2017-12-12T12:03:57.025Z,3.37
2017-12-12T12:06:27.476Z,3.20
2017-12-12T12:08:57.921Z,2.67
2017-12-12T12:11:29.542Z,3.40
2017-12-12T12:14:00.117Z,3.63
2017-12-12T12:16:30.453Z,2.87
2017-12-12T12:19:00.816Z,3.50
2017-12-12T12:21:31.755Z,2.80
2017-12-12T12:24:02.103Z,3.00
2017-12-12T12:26:33.015Z,3.00
2017-12-12T12:29:03.498Z,3.13
2017-12-12T12:31:33.862Z,2.43
2017-12-12T12:34:04.430Z,2.90
2017-12-12T12:36:36.077Z,2.30
2017-12-12T12:39:06.809Z,2.60
2017-12-12T12:41:38.433Z,2.90
2017-12-12T12:44:09.085Z,2.93
2017-12-12T12:46:39.822Z,2.10
2017-12-12T12:49:11.565Z,2.67
2017-12-12T12:51:42.233Z,2.57
2017-12-12T12:54:12.786Z,2.70
2017-12-12T12:56:43.674Z,2.30
2017-12-12T12:59:14.437Z,2.80
2017-12-12T13:01:45.793Z,2.83
2017-12-12T13:04:16.525Z,2.57
2017-12-12T13:06:46.942Z,2.67
2017-12-12T13:09:18.790Z,2.97
2017-12-12T13:11:49.206Z,2.90
2017-12-12T13:14:20.762Z,2.90
2017-12-12T13:16:52.100Z,3.10
2017-12-12T13:19:22.530Z,2.90
2017-12-12T13:21:52.918Z,3.73
2017-12-12T13:24:24.478Z,3.30
2017-12-12T13:26:54.753Z,3.70
2017-12-12T13:29:25.237Z,3.60
2017-12-12T13:31:55.778Z,3.73
2017-12-12T13:34:27.785Z,4.30
2017-12-12T13:36:59.691Z,3.80
2017-12-12T13:39:30.682Z,4.40
2017-12-12T13:42:01.806Z,5.60
2017-12-12T13:44:32.986Z,4.37
2017-12-12T13:47:04.261Z,4.87
2017-12-12T13:49:35.006Z,5.43
2017-12-12T13:52:05.414Z,5.13
2017-12-12T13:54:36.190Z,4.67
2017-12-12T13:57:06.615Z,6.20
2017-12-12T13:59:37.433Z,5.97
2017-12-12T14:02:07.744Z,4.93
2017-12-12T14:04:38.258Z,5.70
2017-12-12T14:07:10.414Z,6.53
2017-12-12T14:09:41.208Z,7.30
2017-12-12T14:12:11.926Z,4.83
2017-12-12T14:14:43.529Z,6.87
2017-12-12T14:17:14.025Z,7.00
2017-12-12T14:19:47.111Z,6.33
2017-12-12T14:22:30.027Z,7.00
2017-12-12T14:25:01.957Z,6.57
2017-12-12T14:27:33.499Z,6.40
2017-12-12T14:30:04.538Z,7.03
2017-12-12T14:32:35.573Z,7.60
2017-12-12T14:35:05.865Z,6.50
2017-12-12T14:37:37.380Z,6.73
2017-12-12T14:40:07.706Z,7.37
2017-12-12T14:42:37.928Z,7.73
2017-12-12T14:45:08.437Z,7.77
2017-12-12T14:47:39.705Z,6.70
2017-12-12T14:50:33.175Z,7.07
2017-12-12T14:53:04.919Z,7.23
2017-12-12T14:55:37.292Z,7.13
2017-12-12T14:58:09.342Z,7.70
2017-12-12T15:00:40.596Z,6.57
2017-12-12T15:03:12.404Z,7.97
2017-12-12T15:05:43.715Z,8.13
2017-12-12T15:08:14.221Z,8.63
2017-12-12T15:10:45.685Z,7.50
2017-12-12T15:13:16.718Z,7.33
2017-12-12T15:15:47.039Z,8.47
2017-12-12T15:18:17.619Z,9.30
2017-12-12T15:20:49.271Z,7.50
2017-12-12T15:23:20.714Z,9.13
2017-12-12T15:25:51.135Z,8.13
2017-12-12T15:28:21.566Z,8.87
2017-12-12T15:30:52.064Z,7.30
2017-12-12T15:33:22.495Z,8.60
2017-12-12T15:35:53.978Z,9.23
2017-12-12T15:38:24.889Z,8.20
2017-12-12T15:40:55.495Z,8.53
2017-12-12T15:43:25.822Z,8.70
2017-12-12T15:45:56.229Z,8.33
2017-12-12T15:48:27.668Z,8.77
2017-12-12T15:50:58.193Z,8.20
2017-12-12T15:53:28.776Z,8.73
2017-12-12T15:55:59.303Z,9.70
2017-12-12T15:58:29.792Z,9.20
2017-12-12T16:01:00.467Z,8.40
2017-12-12T16:03:30.820Z,7.20
2017-12-12T16:06:02.090Z,8.60
2017-12-12T16:08:32.698Z,8.47
2017-12-12T16:11:03.074Z,7.67
2017-12-12T16:13:33.334Z,8.57
2017-12-12T16:16:04.864Z,10.07
2017-12-12T16:18:35.217Z,8.87
2017-12-12T16:21:06.561Z,8.70
2017-12-12T16:23:38.053Z,9.00
2017-12-12T16:26:08.560Z,8.90
2017-12-12T16:28:39.282Z,9.37
2017-12-12T16:31:09.530Z,8.07
2017-12-12T16:33:39.861Z,8.70
2017-12-12T16:36:10.250Z,8.90
2017-12-12T16:38:41.307Z,9.37
2017-12-12T16:41:11.907Z,9.77
2017-12-12T16:43:42.170Z,9.67
2017-12-12T16:46:12.657Z,9.70
2017-12-12T16:48:44.310Z,8.77
2017-12-12T16:51:15.441Z,10.10
2017-12-12T16:53:46.611Z,9.57
2017-12-12T16:56:17.139Z,10.70
2017-12-12T16:58:47.814Z,10.87
2017-12-12T17:01:18.325Z,11.67
2017-12-12T17:03:48.657Z,10.60
2017-12-12T17:06:20.008Z,8.27
2017-12-12T17:08:51.509Z,9.90
2017-12-12T17:11:22.138Z,9.97
2017-12-12T17:13:53.681Z,8.90
2017-12-12T17:16:24.988Z,10.30
2017-12-12T17:18:55.565Z,11.53
2017-12-12T17:21:26.025Z,10.70
2017-12-12T17:23:56.893Z,10.30
2017-12-12T17:26:28.757Z,10.10
2017-12-12T17:28:59.119Z,9.80
2017-12-12T17:31:30.866Z,11.73
2017-12-12T17:34:02.204Z,10.80
2017-12-12T17:36:33.201Z,11.83
2017-12-12T17:39:03.697Z,11.40
2017-12-12T17:41:34.120Z,10.37
2017-12-12T17:44:05.357Z,10.67
2017-12-12T17:46:36.603Z,12.47
2017-12-12T17:49:07.787Z,9.90
2017-12-12T17:51:38.873Z,12.07
2017-12-12T17:54:09.288Z,10.13
2017-12-12T17:56:39.873Z,12.43
2017-12-12T17:59:10.219Z,11.33
2017-12-12T18:01:41.955Z,11.50
2017-12-12T18:04:12.281Z,10.57
2017-12-12T18:06:42.676Z,10.70
2017-12-12T18:09:13.711Z,9.87
2017-12-12T18:11:45.196Z,11.30
2017-12-12T18:14:15.958Z,10.90
2017-12-12T18:16:46.389Z,10.07
2017-12-12T18:19:16.989Z,12.13
2017-12-12T18:21:47.343Z,11.10
2017-12-12T18:24:17.696Z,11.83
2017-12-12T18:26:49.038Z,11.80
2017-12-12T18:29:20.270Z,11.20
2017-12-12T18:31:50.551Z,12.77
2017-12-12T18:34:22.309Z,12.10
2017-12-12T18:36:52.692Z,10.70
2017-12-12T18:39:30.541Z,12.07
2017-12-12T18:42:03.009Z,10.30
2017-12-12T18:44:33.750Z,11.90
2017-12-12T18:47:04.071Z,12.60
2017-12-12T18:49:34.401Z,11.80
2017-12-12T18:52:04.373Z,12.20
2017-12-12T18:54:34.853Z,11.73
2017-12-12T18:57:05.217Z,11.43
2017-12-12T18:59:35.568Z,12.40
2017-12-12T19:02:06.274Z,13.37
2017-12-12T19:04:37.553Z,11.00
2017-12-12T19:07:08.039Z,11.80
2017-12-12T19:09:38.541Z,12.23
2017-12-12T19:12:09.244Z,12.03
2017-12-12T19:14:39.731Z,13.10
2017-12-12T19:17:10.952Z,9.87
2017-12-12T19:19:41.470Z,13.00
2017-12-12T19:22:12.044Z,13.07
2017-12-12T19:24:42.442Z,11.57
2017-12-12T19:27:15.909Z,11.87
2017-12-12T19:29:46.509Z,12.10
2017-12-12T19:32:17.116Z,11.50
2017-12-12T19:34:48.823Z,12.17
2017-12-12T19:37:19.291Z,12.17
2017-12-12T19:39:50.482Z,10.37
2017-12-12T19:42:20.882Z,11.57
2017-12-12T19:44:51.375Z,11.27
2017-12-12T19:47:21.954Z,12.57
2017-12-12T19:49:53.535Z,11.30
2017-12-12T19:52:24.545Z,12.63
2017-12-12T19:54:54.955Z,11.70
2017-12-12T19:57:25.595Z,12.27
2017-12-12T19:59:56.517Z,9.97
2017-12-12T20:02:27.215Z,10.30
2017-12-12T20:04:57.811Z,10.70
2017-12-12T20:07:28.342Z,12.10
2017-12-12T20:09:58.845Z,10.60
2017-12-12T20:12:29.386Z,9.97
2017-12-12T20:15:00.185Z,11.30
2017-12-12T20:17:30.474Z,11.30
2017-12-12T20:20:00.989Z,9.80
2017-12-12T20:22:31.384Z,10.47
2017-12-12T20:25:01.874Z,9.23
2017-12-12T20:27:32.430Z,10.03
2017-12-12T20:30:04.116Z,16.83
2017-12-12T20:32:35.576Z,11.80
2017-12-12T20:35:06.421Z,11.23
2017-12-12T20:37:37.046Z,8.93
2017-12-12T20:40:08.963Z,10.73
2017-12-12T20:42:40.449Z,10.30
2017-12-12T20:45:11.415Z,8.77
2017-12-12T20:47:42.958Z,9.50
2017-12-12T20:50:13.332Z,9.07
2017-12-12T20:52:44.262Z,9.47
2017-12-12T20:55:15.442Z,10.47
2017-12-12T20:57:45.781Z,9.40
2017-12-12T21:00:16.099Z,9.70
2017-12-12T21:02:46.873Z,10.43
2017-12-12T21:05:18.294Z,8.93
2017-12-12T21:07:48.645Z,9.47
2017-12-12T21:10:18.850Z,8.10
2017-12-12T21:12:56.988Z,9.23
2017-12-12T21:15:30.101Z,8.67
2017-12-12T21:18:00.518Z,11.03
2017-12-12T21:20:30.822Z,8.83
2017-12-12T21:23:01.894Z,10.20
2017-12-12T21:25:32.633Z,10.77
2017-12-12T21:28:03.248Z,9.17
2017-12-12T21:30:34.405Z,10.53
2017-12-12T21:33:04.806Z,9.20
2017-12-12T21:35:36.149Z,10.17
2017-12-12T21:38:06.713Z,9.13
2017-12-12T21:40:36.889Z,9.23
2017-12-12T21:43:07.302Z,9.00
2017-12-12T21:45:37.684Z,9.50
2017-12-12T21:48:08.377Z,10.63
2017-12-12T21:50:39.939Z,12.70
2017-12-12T21:53:10.293Z,11.63
2017-12-12T21:55:40.693Z,10.03
2017-12-12T21:58:11.756Z,11.50
2017-12-12T22:00:42.256Z,10.80
2017-12-12T22:03:12.890Z,14.60
2017-12-12T22:05:43.478Z,12.20
2017-12-12T22:08:14.174Z,9.80
2017-12-12T22:10:44.584Z,10.97
2017-12-12T22:13:14.896Z,10.80
2017-12-12T22:15:45.110Z,9.90
2017-12-12T22:18:16.640Z,11.77
2017-12-12T22:20:47.609Z,10.50
2017-12-12T22:23:18.297Z,9.00
2017-12-12T22:25:49.359Z,9.73
2017-12-12T22:28:20.025Z,10.20
2017-12-12T22:30:50.725Z,10.23
2017-12-12T22:33:21.871Z,10.60
2017-12-12T22:35:54.050Z,10.33
2017-12-12T22:38:24.985Z,8.90
2017-12-12T22:40:57.468Z,10.10
2017-12-12T22:43:28.661Z,10.60
2017-12-12T22:45:59.081Z,9.97
2017-12-12T22:48:29.627Z,11.30
2017-12-12T22:51:00.295Z,10.67
2017-12-12T22:53:31.900Z,9.73
2017-12-12T22:56:02.404Z,10.53
2017-12-12T22:58:33.301Z,12.30
2017-12-12T23:01:04.480Z,12.13
2017-12-12T23:03:34.989Z,11.57
2017-12-12T23:06:05.661Z,11.40
2017-12-12T23:08:36.104Z,10.10
2017-12-12T23:11:06.962Z,11.17
2017-12-12T23:13:37.433Z,12.07
2017-12-12T23:16:07.918Z,12.33
2017-12-12T23:18:38.988Z,12.27
2017-12-12T23:21:09.856Z,12.27
2017-12-12T23:23:40.086Z,10.67
2017-12-12T23:26:10.701Z,11.50
2017-12-12T23:28:40.976Z,12.17
2017-12-12T23:31:11.636Z,12.97
2017-12-12T23:33:41.838Z,13.17
2017-12-12T23:36:13.885Z,11.90
2017-12-12T23:38:44.498Z,12.07
2017-12-12T23:41:15.013Z,13.30
2017-12-12T23:43:45.380Z,12.47
2017-12-12T23:46:16.964Z,14.37
2017-12-12T23:48:48.045Z,14.00
2017-12-12T23:51:18.988Z,13.90
2017-12-12T23:53:49.406Z,14.27
2017-12-12T23:56:19.862Z,15.13
2017-12-12T23:58:51.037Z,14.83
